Ana Sayfa
METAR-TAF:

METAR-TAF

Havaalanları :

Watertown, New York, Amerika Birleşik Devletleri

Enlem: 43-59-31N, Boylam: 076-01-18W, yükseklik: 99 m

Güncel hava durumu gözlemi

Rapor saat 19:56 UTC de 59 dakika önce yapıldı.
Rüzgar kuzeydoğudan 5 kt
Sıcaklık 19°C
Nem 64%
Basınç 1011 hPa
Görüş mesafesi: 16.1 km
Açık gökyüzü

METAR: KART 161956Z AUTO 05005KT 10SM CLR 19/12 A2984 RMK AO2 SLP103 T01940122

Saat: 16:55 (20:55 UTC)

Tahmin

Rapor saat 17:34 UTC de 3 saat ve 21 dakika önce yapıldı.
Ayın 16'si saat 18 UTC'den ayın 17'si saat 18 UTC'ye kadar geçerli Tahmin
Rüzgar kuzeydoğudan 10 kt
Görüş mesafesi: 10 km
4000 ft yükseklikte parçalı bulutlu
Ayın 17'si saat 0000 UTC'den
Rüzgar değişken yönden 3 kt
Görüş mesafesi: 10 km
25000 ft yükseklikte parçalı bulutlu

TAF: KART 161734Z 1618/1718 04010KT P6SM SCT040 FM170000 VRB03KT P6SM SCT250

4.000'den fazla havaalanı için hava durumu gözlemleri ve tahminleri (METAR ve TAF raporları).

Kullanılabilir istasyonlar harita üzerinde sarı ve kırmızı noktalarla gösterilir.

İstasyonun adını görmek için fareyi noktanın üzerinde gezdirin.

Sonrasında hava gözlem ve tahminlerini görmek için tıklayın.

Haritayı değiştirmek için: yaklaştırmak için siyah artı işaretli yeşil düğmeye ve uzaklaştırmak için de eksi işaretli düğmeye hızla tıklayın; bitişik haritalar için yeşil okları kullanın.


METAR-TAF: